sensor_id;sensor_type;location;lat;lon;timestamp;P1;durP1;ratioP1;P2;durP2;ratioP2
51489;SDS011;57752;53.574;9.736;2023-02-02T00:02:23;22.52;;;6.00;;
51489;SDS011;57752;53.574;9.736;2023-02-02T00:07:24;19.50;;;4.72;;
51489;SDS011;57752;53.574;9.736;2023-02-02T00:12:24;30.23;;;5.60;;
51489;SDS011;57752;53.574;9.736;2023-02-02T00:17:24;42.45;;;10.30;;
51489;SDS011;57752;53.574;9.736;2023-02-02T00:22:24;27.02;;;5.90;;
51489;SDS011;57752;53.574;9.736;2023-02-02T00:27:24;24.23;;;4.75;;
51489;SDS011;57752;53.574;9.736;2023-02-02T00:32:24;22.65;;;5.30;;
51489;SDS011;57752;53.574;9.736;2023-02-02T00:37:24;29.05;;;5.95;;
51489;SDS011;57752;53.574;9.736;2023-02-02T00:42:24;20.05;;;4.93;;
51489;SDS011;57752;53.574;9.736;2023-02-02T00:47:25;29.77;;;5.50;;
51489;SDS011;57752;53.574;9.736;2023-02-02T00:52:25;17.73;;;4.97;;
51489;SDS011;57752;53.574;9.736;2023-02-02T00:57:25;21.02;;;5.45;;
51489;SDS011;57752;53.574;9.736;2023-02-02T01:02:25;20.88;;;4.68;;
51489;SDS011;57752;53.574;9.736;2023-02-02T01:07:25;24.48;;;6.75;;
51489;SDS011;57752;53.574;9.736;2023-02-02T01:12:25;20.45;;;4.95;;
51489;SDS011;57752;53.574;9.736;2023-02-02T01:17:26;25.02;;;5.47;;
51489;SDS011;57752;53.574;9.736;2023-02-02T01:22:26;20.08;;;4.88;;
51489;SDS011;57752;53.574;9.736;2023-02-02T01:27:26;18.90;;;4.47;;
51489;SDS011;57752;53.574;9.736;2023-02-02T01:32:26;31.30;;;6.38;;
51489;SDS011;57752;53.574;9.736;2023-02-02T01:37:26;30.55;;;10.07;;
51489;SDS011;57752;53.574;9.736;2023-02-02T01:42:27;29.27;;;8.75;;
51489;SDS011;57752;53.574;9.736;2023-02-02T01:47:28;24.90;;;7.18;;
51489;SDS011;57752;53.574;9.736;2023-02-02T01:52:29;24.05;;;6.43;;
51489;SDS011;57752;53.574;9.736;2023-02-02T01:57:32;27.35;;;6.15;;
51489;SDS011;57752;53.574;9.736;2023-02-02T02:02:33;28.77;;;6.03;;
51489;SDS011;57752;53.574;9.736;2023-02-02T02:07:34;25.08;;;4.53;;
51489;SDS011;57752;53.574;9.736;2023-02-02T02:12:34;24.98;;;5.20;;
51489;SDS011;57752;53.574;9.736;2023-02-02T02:17:53;22.35;;;4.95;;
51489;SDS011;57752;53.574;9.736;2023-02-02T02:23:21;21.58;;;5.45;;
51489;SDS011;57752;53.574;9.736;2023-02-02T02:34:15;22.83;;;5.20;;
51489;SDS011;57752;53.574;9.736;2023-02-02T02:39:13;31.90;;;6.07;;
51489;SDS011;57752;53.574;9.736;2023-02-02T02:44:15;31.38;;;7.07;;
51489;SDS011;57752;53.574;9.736;2023-02-02T02:49:15;23.70;;;5.30;;
51489;SDS011;57752;53.574;9.736;2023-02-02T02:54:35;24.00;;;5.57;;
51489;SDS011;57752;53.574;9.736;2023-02-02T02:59:43;24.20;;;4.75;;
51489;SDS011;57752;53.574;9.736;2023-02-02T03:04:49;28.45;;;5.50;;
51489;SDS011;57752;53.574;9.736;2023-02-02T03:09:54;28.65;;;6.80;;
51489;SDS011;57752;53.574;9.736;2023-02-02T03:14:55;20.58;;;4.30;;
51489;SDS011;57752;53.574;9.736;2023-02-02T03:19:55;24.70;;;7.47;;
51489;SDS011;57752;53.574;9.736;2023-02-02T03:24:55;24.92;;;6.90;;
51489;SDS011;57752;53.574;9.736;2023-02-02T03:29:58;22.23;;;4.88;;
51489;SDS011;57752;53.574;9.736;2023-02-02T03:34:58;33.42;;;14.05;;
51489;SDS011;57752;53.574;9.736;2023-02-02T03:39:58;19.88;;;4.82;;
51489;SDS011;57752;53.574;9.736;2023-02-02T03:44:59;21.55;;;4.60;;
51489;SDS011;57752;53.574;9.736;2023-02-02T03:49:59;26.27;;;4.15;;
51489;SDS011;57752;53.574;9.736;2023-02-02T03:54:59;29.92;;;7.38;;
51489;SDS011;57752;53.574;9.736;2023-02-02T03:59:59;26.40;;;6.00;;
51489;SDS011;57752;53.574;9.736;2023-02-02T04:04:59;21.80;;;5.78;;
51489;SDS011;57752;53.574;9.736;2023-02-02T04:10:00;24.02;;;5.97;;
51489;SDS011;57752;53.574;9.736;2023-02-02T04:15:00;23.80;;;4.65;;
51489;SDS011;57752;53.574;9.736;2023-02-02T04:20:00;21.80;;;6.90;;
51489;SDS011;57752;53.574;9.736;2023-02-02T04:25:01;25.25;;;4.28;;
51489;SDS011;57752;53.574;9.736;2023-02-02T04:30:01;20.23;;;4.07;;
51489;SDS011;57752;53.574;9.736;2023-02-02T04:35:01;21.83;;;5.35;;
51489;SDS011;57752;53.574;9.736;2023-02-02T04:40:01;31.38;;;13.38;;
51489;SDS011;57752;53.574;9.736;2023-02-02T04:45:01;24.52;;;4.72;;
51489;SDS011;57752;53.574;9.736;2023-02-02T04:50:02;21.85;;;4.88;;
51489;SDS011;57752;53.574;9.736;2023-02-02T04:55:02;21.83;;;4.43;;
51489;SDS011;57752;53.574;9.736;2023-02-02T05:00:02;29.45;;;5.55;;
51489;SDS011;57752;53.574;9.736;2023-02-02T05:05:03;27.42;;;4.82;;
51489;SDS011;57752;53.574;9.736;2023-02-02T05:10:03;25.95;;;4.90;;
51489;SDS011;57752;53.574;9.736;2023-02-02T05:15:04;26.17;;;5.50;;
51489;SDS011;57752;53.574;9.736;2023-02-02T05:20:04;29.85;;;6.38;;
51489;SDS011;57752;53.574;9.736;2023-02-02T05:25:05;27.83;;;5.28;;
51489;SDS011;57752;53.574;9.736;2023-02-02T05:30:05;31.05;;;5.20;;
51489;SDS011;57752;53.574;9.736;2023-02-02T05:35:06;27.50;;;5.10;;
51489;SDS011;57752;53.574;9.736;2023-02-02T05:40:06;31.90;;;5.70;;
51489;SDS011;57752;53.574;9.736;2023-02-02T05:45:07;26.38;;;5.07;;
51489;SDS011;57752;53.574;9.736;2023-02-02T05:50:07;24.02;;;5.22;;
51489;SDS011;57752;53.574;9.736;2023-02-02T05:55:08;23.77;;;4.88;;
51489;SDS011;57752;53.574;9.736;2023-02-02T06:00:09;28.85;;;6.47;;
51489;SDS011;57752;53.574;9.736;2023-02-02T06:05:09;26.50;;;4.47;;
51489;SDS011;57752;53.574;9.736;2023-02-02T06:10:09;28.05;;;4.55;;
51489;SDS011;57752;53.574;9.736;2023-02-02T06:15:09;25.23;;;5.78;;
51489;SDS011;57752;53.574;9.736;2023-02-02T06:20:10;27.58;;;5.15;;
51489;SDS011;57752;53.574;9.736;2023-02-02T06:25:11;21.92;;;5.40;;
51489;SDS011;57752;53.574;9.736;2023-02-02T06:30:11;25.75;;;5.35;;
51489;SDS011;57752;53.574;9.736;2023-02-02T06:35:12;25.17;;;4.10;;
51489;SDS011;57752;53.574;9.736;2023-02-02T06:40:12;26.05;;;4.32;;
51489;SDS011;57752;53.574;9.736;2023-02-02T06:45:12;23.10;;;4.75;;
51489;SDS011;57752;53.574;9.736;2023-02-02T06:50:12;25.30;;;4.78;;
51489;SDS011;57752;53.574;9.736;2023-02-02T06:55:13;23.67;;;5.03;;
51489;SDS011;57752;53.574;9.736;2023-02-02T07:00:13;29.33;;;5.57;;
51489;SDS011;57752;53.574;9.736;2023-02-02T07:05:13;27.40;;;5.00;;
51489;SDS011;57752;53.574;9.736;2023-02-02T07:10:13;22.80;;;4.75;;
51489;SDS011;57752;53.574;9.736;2023-02-02T07:15:14;21.02;;;4.47;;
51489;SDS011;57752;53.574;9.736;2023-02-02T07:20:14;24.90;;;5.55;;
51489;SDS011;57752;53.574;9.736;2023-02-02T07:25:14;26.08;;;5.82;;
51489;SDS011;57752;53.574;9.736;2023-02-02T07:30:14;20.75;;;4.95;;
51489;SDS011;57752;53.574;9.736;2023-02-02T07:35:16;22.73;;;4.20;;
51489;SDS011;57752;53.574;9.736;2023-02-02T07:40:16;22.73;;;4.50;;
51489;SDS011;57752;53.574;9.736;2023-02-02T07:45:16;21.63;;;4.43;;
51489;SDS011;57752;53.574;9.736;2023-02-02T07:50:16;19.33;;;4.18;;
51489;SDS011;57752;53.574;9.736;2023-02-02T07:55:18;23.95;;;5.10;;
51489;SDS011;57752;53.574;9.736;2023-02-02T08:00:18;21.65;;;4.18;;
51489;SDS011;57752;53.574;9.736;2023-02-02T08:05:18;20.10;;;3.70;;
51489;SDS011;57752;53.574;9.736;2023-02-02T08:10:19;17.38;;;3.95;;
51489;SDS011;57752;53.574;9.736;2023-02-02T08:15:19;25.30;;;5.20;;
51489;SDS011;57752;53.574;9.736;2023-02-02T08:20:20;24.60;;;4.18;;
51489;SDS011;57752;53.574;9.736;2023-02-02T08:25:20;23.25;;;5.47;;
51489;SDS011;57752;53.574;9.736;2023-02-02T08:30:20;28.10;;;3.90;;
51489;SDS011;57752;53.574;9.736;2023-02-02T08:35:20;20.92;;;4.13;;
51489;SDS011;57752;53.574;9.736;2023-02-02T08:40:21;22.08;;;4.32;;
51489;SDS011;57752;53.574;9.736;2023-02-02T08:45:21;20.67;;;4.05;;
51489;SDS011;57752;53.574;9.736;2023-02-02T08:50:21;20.33;;;3.50;;
51489;SDS011;57752;53.574;9.736;2023-02-02T08:55:21;20.58;;;4.00;;
51489;SDS011;57752;53.574;9.736;2023-02-02T09:00:21;17.27;;;3.40;;
51489;SDS011;57752;53.574;9.736;2023-02-02T09:05:21;16.65;;;3.60;;
51489;SDS011;57752;53.574;9.736;2023-02-02T09:10:22;20.92;;;4.45;;
51489;SDS011;57752;53.574;9.736;2023-02-02T09:15:22;20.83;;;4.07;;
51489;SDS011;57752;53.574;9.736;2023-02-02T09:20:22;19.58;;;5.00;;
51489;SDS011;57752;53.574;9.736;2023-02-02T09:25:23;17.92;;;5.22;;
51489;SDS011;57752;53.574;9.736;2023-02-02T09:30:23;23.42;;;3.80;;
51489;SDS011;57752;53.574;9.736;2023-02-02T09:35:24;22.05;;;5.00;;
51489;SDS011;57752;53.574;9.736;2023-02-02T09:40:24;22.30;;;5.32;;
51489;SDS011;57752;53.574;9.736;2023-02-02T09:45:30;22.70;;;5.18;;
51489;SDS011;57752;53.574;9.736;2023-02-02T09:50:42;17.05;;;3.30;;
51489;SDS011;57752;53.574;9.736;2023-02-02T09:55:49;22.87;;;3.70;;
51489;SDS011;57752;53.574;9.736;2023-02-02T10:11:36;19.02;;;3.28;;
51489;SDS011;57752;53.574;9.736;2023-02-02T10:16:38;13.80;;;3.00;;
51489;SDS011;57752;53.574;9.736;2023-02-02T10:26:59;13.95;;;3.17;;
51489;SDS011;57752;53.574;9.736;2023-02-02T10:47:37;15.38;;;3.13;;
51489;SDS011;57752;53.574;9.736;2023-02-02T10:52:39;16.17;;;2.83;;
51489;SDS011;57752;53.574;9.736;2023-02-02T10:57:51;20.35;;;3.53;;
51489;SDS011;57752;53.574;9.736;2023-02-02T11:02:52;15.73;;;3.10;;
51489;SDS011;57752;53.574;9.736;2023-02-02T11:07:52;13.57;;;3.00;;
51489;SDS011;57752;53.574;9.736;2023-02-02T11:12:53;15.65;;;3.15;;
51489;SDS011;57752;53.574;9.736;2023-02-02T11:17:55;16.35;;;3.08;;
51489;SDS011;57752;53.574;9.736;2023-02-02T11:23:15;10.52;;;2.60;;
51489;SDS011;57752;53.574;9.736;2023-02-02T11:28:19;14.18;;;2.90;;
51489;SDS011;57752;53.574;9.736;2023-02-02T11:33:25;18.65;;;3.42;;
51489;SDS011;57752;53.574;9.736;2023-02-02T11:38:26;16.10;;;3.13;;
51489;SDS011;57752;53.574;9.736;2023-02-02T11:43:32;12.50;;;3.20;;
51489;SDS011;57752;53.574;9.736;2023-02-02T11:48:34;13.15;;;3.47;;
51489;SDS011;57752;53.574;9.736;2023-02-02T11:53:38;17.38;;;2.80;;
51489;SDS011;57752;53.574;9.736;2023-02-02T11:58:51;12.60;;;3.38;;
51489;SDS011;57752;53.574;9.736;2023-02-02T12:04:35;16.60;;;2.90;;
51489;SDS011;57752;53.574;9.736;2023-02-02T12:09:17;13.40;;;3.22;;
51489;SDS011;57752;53.574;9.736;2023-02-02T12:14:25;13.77;;;3.30;;
51489;SDS011;57752;53.574;9.736;2023-02-02T12:24:56;18.65;;;9.40;;
51489;SDS011;57752;53.574;9.736;2023-02-02T12:30:02;11.98;;;3.05;;
51489;SDS011;57752;53.574;9.736;2023-02-02T12:40:28;17.17;;;2.92;;
51489;SDS011;57752;53.574;9.736;2023-02-02T12:50:32;14.27;;;2.78;;
51489;SDS011;57752;53.574;9.736;2023-02-02T12:55:41;15.77;;;3.67;;
51489;SDS011;57752;53.574;9.736;2023-02-02T13:11:27;10.35;;;2.50;;
51489;SDS011;57752;53.574;9.736;2023-02-02T13:16:30;11.95;;;2.63;;
51489;SDS011;57752;53.574;9.736;2023-02-02T13:21:31;16.15;;;2.90;;
51489;SDS011;57752;53.574;9.736;2023-02-02T13:26:33;13.10;;;2.50;;
51489;SDS011;57752;53.574;9.736;2023-02-02T13:36:49;12.10;;;2.70;;
51489;SDS011;57752;53.574;9.736;2023-02-02T13:41:51;13.45;;;3.25;;
51489;SDS011;57752;53.574;9.736;2023-02-02T13:47:08;12.98;;;3.25;;
51489;SDS011;57752;53.574;9.736;2023-02-02T13:57:17;11.77;;;2.85;;
51489;SDS011;57752;53.574;9.736;2023-02-02T14:02:29;12.40;;;2.40;;
51489;SDS011;57752;53.574;9.736;2023-02-02T14:07:36;12.30;;;2.60;;
51489;SDS011;57752;53.574;9.736;2023-02-02T14:12:37;12.02;;;2.58;;
51489;SDS011;57752;53.574;9.736;2023-02-02T14:22:55;11.95;;;2.75;;
51489;SDS011;57752;53.574;9.736;2023-02-02T14:27:56;12.95;;;2.67;;
51489;SDS011;57752;53.574;9.736;2023-02-02T14:43:47;10.50;;;2.47;;
51489;SDS011;57752;53.574;9.736;2023-02-02T14:59:02;12.73;;;3.10;;
51489;SDS011;57752;53.574;9.736;2023-02-02T15:14:18;12.95;;;2.67;;
51489;SDS011;57752;53.574;9.736;2023-02-02T15:19:24;13.50;;;3.60;;
51489;SDS011;57752;53.574;9.736;2023-02-02T15:24:26;19.95;;;6.38;;
51489;SDS011;57752;53.574;9.736;2023-02-02T15:29:39;17.13;;;5.03;;
51489;SDS011;57752;53.574;9.736;2023-02-02T15:34:42;15.27;;;2.58;;
51489;SDS011;57752;53.574;9.736;2023-02-02T15:39:48;11.70;;;3.03;;
51489;SDS011;57752;53.574;9.736;2023-02-02T15:44:50;11.75;;;2.63;;
51489;SDS011;57752;53.574;9.736;2023-02-02T15:49:50;14.32;;;3.80;;
51489;SDS011;57752;53.574;9.736;2023-02-02T15:54:55;11.77;;;3.00;;
51489;SDS011;57752;53.574;9.736;2023-02-02T15:59:55;11.10;;;2.95;;
51489;SDS011;57752;53.574;9.736;2023-02-02T16:04:56;16.95;;;3.15;;
51489;SDS011;57752;53.574;9.736;2023-02-02T16:10:00;16.70;;;3.17;;
51489;SDS011;57752;53.574;9.736;2023-02-02T16:15:01;14.73;;;3.40;;
51489;SDS011;57752;53.574;9.736;2023-02-02T16:20:04;10.90;;;3.00;;
51489;SDS011;57752;53.574;9.736;2023-02-02T16:25:08;12.13;;;2.80;;
51489;SDS011;57752;53.574;9.736;2023-02-02T16:30:14;11.48;;;3.22;;
51489;SDS011;57752;53.574;9.736;2023-02-02T16:35:38;17.33;;;3.92;;
51489;SDS011;57752;53.574;9.736;2023-02-02T16:40:39;15.32;;;3.35;;
51489;SDS011;57752;53.574;9.736;2023-02-02T16:45:47;18.05;;;3.90;;
51489;SDS011;57752;53.574;9.736;2023-02-02T16:50:48;10.65;;;2.80;;
51489;SDS011;57752;53.574;9.736;2023-02-02T16:56:01;14.50;;;2.90;;
51489;SDS011;57752;53.574;9.736;2023-02-02T17:01:07;12.68;;;3.22;;
51489;SDS011;57752;53.574;9.736;2023-02-02T17:06:08;17.95;;;3.05;;
51489;SDS011;57752;53.574;9.736;2023-02-02T17:11:26;13.55;;;3.30;;
51489;SDS011;57752;53.574;9.736;2023-02-02T17:16:27;11.32;;;3.03;;
51489;SDS011;57752;53.574;9.736;2023-02-02T17:21:27;13.32;;;2.65;;
51489;SDS011;57752;53.574;9.736;2023-02-02T17:26:29;12.60;;;2.90;;
51489;SDS011;57752;53.574;9.736;2023-02-02T17:31:29;10.73;;;2.97;;
51489;SDS011;57752;53.574;9.736;2023-02-02T17:36:30;10.65;;;2.70;;
51489;SDS011;57752;53.574;9.736;2023-02-02T17:41:31;10.30;;;3.03;;
51489;SDS011;57752;53.574;9.736;2023-02-02T17:46:31;11.98;;;3.22;;
51489;SDS011;57752;53.574;9.736;2023-02-02T17:51:32;13.50;;;3.10;;
51489;SDS011;57752;53.574;9.736;2023-02-02T17:56:40;15.73;;;3.88;;
51489;SDS011;57752;53.574;9.736;2023-02-02T18:01:40;12.45;;;3.10;;
51489;SDS011;57752;53.574;9.736;2023-02-02T18:06:40;14.60;;;3.63;;
51489;SDS011;57752;53.574;9.736;2023-02-02T18:11:40;10.55;;;3.20;;
51489;SDS011;57752;53.574;9.736;2023-02-02T18:16:41;14.70;;;3.67;;
51489;SDS011;57752;53.574;9.736;2023-02-02T18:21:41;11.95;;;3.42;;
51489;SDS011;57752;53.574;9.736;2023-02-02T18:26:41;13.93;;;3.72;;
51489;SDS011;57752;53.574;9.736;2023-02-02T18:31:41;14.85;;;3.78;;
51489;SDS011;57752;53.574;9.736;2023-02-02T18:36:41;14.00;;;3.80;;
51489;SDS011;57752;53.574;9.736;2023-02-02T18:41:41;15.27;;;5.40;;
51489;SDS011;57752;53.574;9.736;2023-02-02T18:46:41;14.00;;;4.60;;
51489;SDS011;57752;53.574;9.736;2023-02-02T18:51:42;17.08;;;4.82;;
51489;SDS011;57752;53.574;9.736;2023-02-02T18:56:42;17.42;;;4.88;;
51489;SDS011;57752;53.574;9.736;2023-02-02T19:01:42;17.83;;;5.03;;
51489;SDS011;57752;53.574;9.736;2023-02-02T19:06:42;13.52;;;4.07;;
51489;SDS011;57752;53.574;9.736;2023-02-02T19:12:01;15.60;;;4.90;;
51489;SDS011;57752;53.574;9.736;2023-02-02T19:17:14;11.77;;;4.50;;
51489;SDS011;57752;53.574;9.736;2023-02-02T19:22:17;17.98;;;3.95;;
51489;SDS011;57752;53.574;9.736;2023-02-02T19:27:18;17.37;;;4.77;;
51489;SDS011;57752;53.574;9.736;2023-02-02T19:32:20;17.60;;;4.78;;
51489;SDS011;57752;53.574;9.736;2023-02-02T19:42:22;14.70;;;5.13;;
51489;SDS011;57752;53.574;9.736;2023-02-02T19:47:26;15.98;;;5.05;;
51489;SDS011;57752;53.574;9.736;2023-02-02T19:52:27;18.75;;;5.03;;
51489;SDS011;57752;53.574;9.736;2023-02-02T19:57:34;17.23;;;5.47;;
51489;SDS011;57752;53.574;9.736;2023-02-02T20:07:51;26.38;;;6.55;;
51489;SDS011;57752;53.574;9.736;2023-02-02T20:12:53;22.90;;;7.43;;
51489;SDS011;57752;53.574;9.736;2023-02-02T20:17:54;27.08;;;7.60;;
51489;SDS011;57752;53.574;9.736;2023-02-02T20:22:55;26.15;;;7.95;;
51489;SDS011;57752;53.574;9.736;2023-02-02T20:27:56;20.25;;;7.00;;
51489;SDS011;57752;53.574;9.736;2023-02-02T20:32:58;27.23;;;7.85;;
51489;SDS011;57752;53.574;9.736;2023-02-02T20:38:00;18.20;;;7.30;;
51489;SDS011;57752;53.574;9.736;2023-02-02T20:43:00;25.58;;;7.60;;
51489;SDS011;57752;53.574;9.736;2023-02-02T20:48:00;27.45;;;8.73;;
51489;SDS011;57752;53.574;9.736;2023-02-02T20:53:00;26.17;;;7.78;;
51489;SDS011;57752;53.574;9.736;2023-02-02T20:58:01;28.42;;;8.32;;
51489;SDS011;57752;53.574;9.736;2023-02-02T21:03:02;17.90;;;6.38;;
51489;SDS011;57752;53.574;9.736;2023-02-02T21:08:02;22.63;;;7.07;;
51489;SDS011;57752;53.574;9.736;2023-02-02T21:13:03;25.05;;;6.20;;
51489;SDS011;57752;53.574;9.736;2023-02-02T21:18:03;20.15;;;6.47;;
51489;SDS011;57752;53.574;9.736;2023-02-02T21:23:03;16.75;;;5.75;;
51489;SDS011;57752;53.574;9.736;2023-02-02T21:28:04;19.25;;;6.30;;
51489;SDS011;57752;53.574;9.736;2023-02-02T21:33:04;21.73;;;6.90;;
51489;SDS011;57752;53.574;9.736;2023-02-02T21:38:11;23.98;;;6.85;;
51489;SDS011;57752;53.574;9.736;2023-02-02T21:43:16;25.08;;;7.32;;
51489;SDS011;57752;53.574;9.736;2023-02-02T21:48:21;20.73;;;7.50;;
51489;SDS011;57752;53.574;9.736;2023-02-02T21:53:22;25.02;;;7.30;;
51489;SDS011;57752;53.574;9.736;2023-02-02T22:03:28;22.48;;;8.40;;
51489;SDS011;57752;53.574;9.736;2023-02-02T22:08:30;24.42;;;7.88;;
51489;SDS011;57752;53.574;9.736;2023-02-02T22:13:34;22.23;;;7.82;;
51489;SDS011;57752;53.574;9.736;2023-02-02T22:18:34;22.25;;;7.13;;
51489;SDS011;57752;53.574;9.736;2023-02-02T22:23:34;18.77;;;8.15;;
51489;SDS011;57752;53.574;9.736;2023-02-02T22:28:37;23.83;;;8.52;;
51489;SDS011;57752;53.574;9.736;2023-02-02T22:33:41;21.23;;;8.43;;
51489;SDS011;57752;53.574;9.736;2023-02-02T22:38:41;21.73;;;8.52;;
51489;SDS011;57752;53.574;9.736;2023-02-02T22:43:41;23.80;;;8.85;;
51489;SDS011;57752;53.574;9.736;2023-02-02T22:48:41;23.10;;;8.80;;
51489;SDS011;57752;53.574;9.736;2023-02-02T22:53:42;24.48;;;9.63;;
51489;SDS011;57752;53.574;9.736;2023-02-02T22:58:42;20.60;;;8.20;;
51489;SDS011;57752;53.574;9.736;2023-02-02T23:03:42;22.65;;;9.38;;
51489;SDS011;57752;53.574;9.736;2023-02-02T23:08:42;25.38;;;9.40;;
51489;SDS011;57752;53.574;9.736;2023-02-02T23:13:43;24.17;;;9.10;;
51489;SDS011;57752;53.574;9.736;2023-02-02T23:18:43;24.83;;;10.00;;
51489;SDS011;57752;53.574;9.736;2023-02-02T23:23:43;24.85;;;9.05;;
51489;SDS011;57752;53.574;9.736;2023-02-02T23:28:43;26.75;;;10.13;;
51489;SDS011;57752;53.574;9.736;2023-02-02T23:33:43;25.17;;;10.20;;
51489;SDS011;57752;53.574;9.736;2023-02-02T23:38:44;23.92;;;10.40;;
51489;SDS011;57752;53.574;9.736;2023-02-02T23:43:44;26.73;;;11.15;;
51489;SDS011;57752;53.574;9.736;2023-02-02T23:48:44;27.80;;;11.60;;
51489;SDS011;57752;53.574;9.736;2023-02-02T23:53:44;28.77;;;11.80;;
51489;SDS011;57752;53.574;9.736;2023-02-02T23:58:44;33.58;;;13.25;;
